sensor_id;sensor_type;location;lat;lon;timestamp;P1;durP1;ratioP1;P2;durP2;ratioP2
14169;SDS011;63889;50.596;8.690;2022-10-16T00:01:22;3.25;;;1.58;;
14169;SDS011;63889;50.596;8.690;2022-10-16T00:03:50;4.32;;;1.40;;
14169;SDS011;63889;50.596;8.690;2022-10-16T00:06:16;1.67;;;1.15;;
14169;SDS011;63889;50.596;8.690;2022-10-16T00:08:44;4.63;;;1.33;;
14169;SDS011;63889;50.596;8.690;2022-10-16T00:14:04;2.42;;;1.75;;
14169;SDS011;63889;50.596;8.690;2022-10-16T00:16:32;2.72;;;1.80;;
14169;SDS011;63889;50.596;8.690;2022-10-16T00:18:58;4.15;;;1.50;;
14169;SDS011;63889;50.596;8.690;2022-10-16T00:21:25;6.53;;;1.75;;
14169;SDS011;63889;50.596;8.690;2022-10-16T00:23:53;5.93;;;1.98;;
14169;SDS011;63889;50.596;8.690;2022-10-16T00:26:20;2.50;;;1.77;;
14169;SDS011;63889;50.596;8.690;2022-10-16T00:28:47;3.92;;;2.22;;
14169;SDS011;63889;50.596;8.690;2022-10-16T00:31:14;4.70;;;2.38;;
14169;SDS011;63889;50.596;8.690;2022-10-16T00:33:41;7.53;;;2.15;;
14169;SDS011;63889;50.596;8.690;2022-10-16T00:36:07;2.83;;;2.40;;
14169;SDS011;63889;50.596;8.690;2022-10-16T00:38:34;4.35;;;2.28;;
14169;SDS011;63889;50.596;8.690;2022-10-16T00:41:00;4.28;;;2.80;;
14169;SDS011;63889;50.596;8.690;2022-10-16T00:43:33;3.05;;;2.05;;
14169;SDS011;63889;50.596;8.690;2022-10-16T00:46:17;9.85;;;2.40;;
14169;SDS011;63889;50.596;8.690;2022-10-16T00:51:19;7.55;;;2.47;;
14169;SDS011;63889;50.596;8.690;2022-10-16T00:53:48;3.63;;;3.20;;
14169;SDS011;63889;50.596;8.690;2022-10-16T00:56:14;6.53;;;3.08;;
14169;SDS011;63889;50.596;8.690;2022-10-16T00:58:39;5.88;;;2.42;;
14169;SDS011;63889;50.596;8.690;2022-10-16T01:01:05;4.70;;;2.78;;
14169;SDS011;63889;50.596;8.690;2022-10-16T01:03:32;5.78;;;4.22;;
14169;SDS011;63889;50.596;8.690;2022-10-16T01:14:17;12.60;;;5.45;;
14169;SDS011;63889;50.596;8.690;2022-10-16T01:16:54;9.70;;;4.40;;
14169;SDS011;63889;50.596;8.690;2022-10-16T01:19:51;11.50;;;4.72;;
14169;SDS011;63889;50.596;8.690;2022-10-16T01:25:39;15.70;;;8.05;;
14169;SDS011;63889;50.596;8.690;2022-10-16T01:28:31;13.05;;;5.97;;
14169;SDS011;63889;50.596;8.690;2022-10-16T01:31:01;10.88;;;3.35;;
14169;SDS011;63889;50.596;8.690;2022-10-16T01:33:35;3.88;;;2.80;;
14169;SDS011;63889;50.596;8.690;2022-10-16T01:36:16;4.25;;;2.80;;
14169;SDS011;63889;50.596;8.690;2022-10-16T01:38:48;4.47;;;3.00;;
14169;SDS011;63889;50.596;8.690;2022-10-16T01:41:21;6.72;;;2.80;;
14169;SDS011;63889;50.596;8.690;2022-10-16T01:44:06;5.38;;;2.78;;
14169;SDS011;63889;50.596;8.690;2022-10-16T01:46:37;5.38;;;2.75;;
14169;SDS011;63889;50.596;8.690;2022-10-16T01:49:06;10.25;;;2.67;;
14169;SDS011;63889;50.596;8.690;2022-10-16T01:51:33;5.65;;;1.90;;
14169;SDS011;63889;50.596;8.690;2022-10-16T01:54:01;2.40;;;2.20;;
14169;SDS011;63889;50.596;8.690;2022-10-16T01:56:27;6.38;;;2.33;;
14169;SDS011;63889;50.596;8.690;2022-10-16T01:58:56;5.75;;;2.75;;
14169;SDS011;63889;50.596;8.690;2022-10-16T02:01:31;9.30;;;3.20;;
14169;SDS011;63889;50.596;8.690;2022-10-16T02:04:02;6.68;;;2.60;;
14169;SDS011;63889;50.596;8.690;2022-10-16T02:06:33;2.47;;;2.10;;
14169;SDS011;63889;50.596;8.690;2022-10-16T02:08:59;3.00;;;2.53;;
14169;SDS011;63889;50.596;8.690;2022-10-16T02:11:25;4.13;;;2.53;;
14169;SDS011;63889;50.596;8.690;2022-10-16T02:13:52;2.75;;;2.35;;
14169;SDS011;63889;50.596;8.690;2022-10-16T02:16:21;3.22;;;2.30;;
14169;SDS011;63889;50.596;8.690;2022-10-16T02:18:51;4.30;;;2.17;;
14169;SDS011;63889;50.596;8.690;2022-10-16T02:21:19;3.40;;;2.13;;
14169;SDS011;63889;50.596;8.690;2022-10-16T02:26:47;2.13;;;1.92;;
14169;SDS011;63889;50.596;8.690;2022-10-16T02:29:17;5.38;;;2.65;;
14169;SDS011;63889;50.596;8.690;2022-10-16T02:31:49;4.28;;;2.40;;
14169;SDS011;63889;50.596;8.690;2022-10-16T02:34:19;2.47;;;2.28;;
14169;SDS011;63889;50.596;8.690;2022-10-16T02:36:47;5.97;;;2.20;;
14169;SDS011;63889;50.596;8.690;2022-10-16T02:39:15;2.15;;;1.90;;
14169;SDS011;63889;50.596;8.690;2022-10-16T02:41:41;3.95;;;2.03;;
14169;SDS011;63889;50.596;8.690;2022-10-16T02:44:07;4.55;;;2.08;;
14169;SDS011;63889;50.596;8.690;2022-10-16T02:46:33;4.40;;;2.22;;
14169;SDS011;63889;50.596;8.690;2022-10-16T02:48:58;3.53;;;2.40;;
14169;SDS011;63889;50.596;8.690;2022-10-16T02:51:24;5.53;;;2.10;;
14169;SDS011;63889;50.596;8.690;2022-10-16T02:54:01;3.10;;;1.73;;
14169;SDS011;63889;50.596;8.690;2022-10-16T02:56:27;3.75;;;2.20;;
14169;SDS011;63889;50.596;8.690;2022-10-16T02:58:53;2.22;;;1.98;;
14169;SDS011;63889;50.596;8.690;2022-10-16T03:01:18;2.28;;;1.98;;
14169;SDS011;63889;50.596;8.690;2022-10-16T03:03:44;2.15;;;1.85;;
14169;SDS011;63889;50.596;8.690;2022-10-16T03:06:09;6.07;;;2.03;;
14169;SDS011;63889;50.596;8.690;2022-10-16T03:08:35;3.20;;;2.35;;
14169;SDS011;63889;50.596;8.690;2022-10-16T03:11:00;5.40;;;2.28;;
14169;SDS011;63889;50.596;8.690;2022-10-16T03:13:26;2.67;;;2.20;;
14169;SDS011;63889;50.596;8.690;2022-10-16T03:15:51;3.60;;;2.45;;
14169;SDS011;63889;50.596;8.690;2022-10-16T03:18:17;3.20;;;2.35;;
14169;SDS011;63889;50.596;8.690;2022-10-16T03:20:43;5.47;;;2.08;;
14169;SDS011;63889;50.596;8.690;2022-10-16T03:23:08;4.55;;;2.47;;
14169;SDS011;63889;50.596;8.690;2022-10-16T03:25:34;4.65;;;2.22;;
14169;SDS011;63889;50.596;8.690;2022-10-16T03:28:00;4.80;;;2.72;;
14169;SDS011;63889;50.596;8.690;2022-10-16T03:30:25;4.47;;;2.33;;
14169;SDS011;63889;50.596;8.690;2022-10-16T03:32:51;5.57;;;2.50;;
14169;SDS011;63889;50.596;8.690;2022-10-16T03:35:20;4.50;;;2.80;;
14169;SDS011;63889;50.596;8.690;2022-10-16T03:37:46;4.85;;;2.80;;
14169;SDS011;63889;50.596;8.690;2022-10-16T03:40:11;6.43;;;3.03;;
14169;SDS011;63889;50.596;8.690;2022-10-16T03:42:37;6.35;;;2.95;;
14169;SDS011;63889;50.596;8.690;2022-10-16T03:45:03;6.35;;;2.83;;
14169;SDS011;63889;50.596;8.690;2022-10-16T03:47:28;3.38;;;2.60;;
14169;SDS011;63889;50.596;8.690;2022-10-16T03:49:54;7.82;;;3.22;;
14169;SDS011;63889;50.596;8.690;2022-10-16T03:52:20;4.28;;;2.70;;
14169;SDS011;63889;50.596;8.690;2022-10-16T03:54:45;6.40;;;2.63;;
14169;SDS011;63889;50.596;8.690;2022-10-16T03:57:11;2.55;;;2.35;;
14169;SDS011;63889;50.596;8.690;2022-10-16T03:59:36;1.95;;;1.73;;
14169;SDS011;63889;50.596;8.690;2022-10-16T04:02:02;5.32;;;1.98;;
14169;SDS011;63889;50.596;8.690;2022-10-16T04:04:27;7.10;;;2.33;;
14169;SDS011;63889;50.596;8.690;2022-10-16T04:06:53;2.50;;;1.73;;
14169;SDS011;63889;50.596;8.690;2022-10-16T04:09:18;5.00;;;2.25;;
14169;SDS011;63889;50.596;8.690;2022-10-16T04:11:44;2.72;;;1.38;;
14169;SDS011;63889;50.596;8.690;2022-10-16T04:14:10;6.28;;;1.40;;
14169;SDS011;63889;50.596;8.690;2022-10-16T04:16:35;1.13;;;0.93;;
14169;SDS011;63889;50.596;8.690;2022-10-16T04:19:01;2.15;;;0.90;;
14169;SDS011;63889;50.596;8.690;2022-10-16T04:21:26;3.67;;;0.70;;
14169;SDS011;63889;50.596;8.690;2022-10-16T04:23:52;0.55;;;0.55;;
14169;SDS011;63889;50.596;8.690;2022-10-16T04:26:17;2.83;;;0.80;;
14169;SDS011;63889;50.596;8.690;2022-10-16T04:28:43;0.75;;;0.60;;
14169;SDS011;63889;50.596;8.690;2022-10-16T04:31:08;1.35;;;0.50;;
14169;SDS011;63889;50.596;8.690;2022-10-16T04:33:34;1.35;;;0.50;;
14169;SDS011;63889;50.596;8.690;2022-10-16T04:36:00;1.02;;;0.40;;
14169;SDS011;63889;50.596;8.690;2022-10-16T04:38:27;0.52;;;0.50;;
14169;SDS011;63889;50.596;8.690;2022-10-16T04:40:53;4.45;;;0.90;;
14169;SDS011;63889;50.596;8.690;2022-10-16T04:43:19;1.45;;;0.43;;
14169;SDS011;63889;50.596;8.690;2022-10-16T04:45:44;0.70;;;0.55;;
14169;SDS011;63889;50.596;8.690;2022-10-16T04:48:10;2.17;;;0.50;;
14169;SDS011;63889;50.596;8.690;2022-10-16T04:50:35;1.05;;;0.63;;
14169;SDS011;63889;50.596;8.690;2022-10-16T04:53:01;2.22;;;0.55;;
14169;SDS011;63889;50.596;8.690;2022-10-16T04:55:27;2.15;;;0.50;;
14169;SDS011;63889;50.596;8.690;2022-10-16T04:57:52;2.08;;;0.50;;
14169;SDS011;63889;50.596;8.690;2022-10-16T05:00:18;1.67;;;0.63;;
14169;SDS011;63889;50.596;8.690;2022-10-16T05:02:43;0.45;;;0.45;;
14169;SDS011;63889;50.596;8.690;2022-10-16T05:05:09;1.23;;;0.63;;
14169;SDS011;63889;50.596;8.690;2022-10-16T05:07:34;1.38;;;0.70;;
14169;SDS011;63889;50.596;8.690;2022-10-16T05:10:00;1.13;;;0.60;;
14169;SDS011;63889;50.596;8.690;2022-10-16T05:12:25;3.90;;;0.68;;
14169;SDS011;63889;50.596;8.690;2022-10-16T05:14:51;1.60;;;0.55;;
14169;SDS011;63889;50.596;8.690;2022-10-16T05:17:17;2.65;;;0.55;;
14169;SDS011;63889;50.596;8.690;2022-10-16T05:19:42;1.95;;;0.60;;
14169;SDS011;63889;50.596;8.690;2022-10-16T05:22:08;2.90;;;0.80;;
14169;SDS011;63889;50.596;8.690;2022-10-16T05:24:33;1.58;;;0.80;;
14169;SDS011;63889;50.596;8.690;2022-10-16T05:26:59;3.95;;;1.23;;
14169;SDS011;63889;50.596;8.690;2022-10-16T05:29:24;1.63;;;0.90;;
14169;SDS011;63889;50.596;8.690;2022-10-16T05:31:51;5.18;;;1.00;;
14169;SDS011;63889;50.596;8.690;2022-10-16T05:34:17;1.38;;;1.00;;
14169;SDS011;63889;50.596;8.690;2022-10-16T05:36:43;5.78;;;1.00;;
14169;SDS011;63889;50.596;8.690;2022-10-16T05:39:10;1.33;;;0.85;;
14169;SDS011;63889;50.596;8.690;2022-10-16T05:41:35;7.75;;;1.00;;
14169;SDS011;63889;50.596;8.690;2022-10-16T05:44:03;22.63;;;1.98;;
14169;SDS011;63889;50.596;8.690;2022-10-16T05:46:30;2.38;;;1.15;;
14169;SDS011;63889;50.596;8.690;2022-10-16T05:48:55;3.63;;;1.00;;
14169;SDS011;63889;50.596;8.690;2022-10-16T05:51:21;9.25;;;1.65;;
14169;SDS011;63889;50.596;8.690;2022-10-16T05:53:47;2.17;;;1.33;;
14169;SDS011;63889;50.596;8.690;2022-10-16T05:56:12;3.58;;;1.13;;
14169;SDS011;63889;50.596;8.690;2022-10-16T05:58:38;3.22;;;1.02;;
14169;SDS011;63889;50.596;8.690;2022-10-16T06:01:06;5.38;;;1.27;;
14169;SDS011;63889;50.596;8.690;2022-10-16T06:03:35;4.88;;;1.08;;
14169;SDS011;63889;50.596;8.690;2022-10-16T06:06:07;3.28;;;0.80;;
14169;SDS011;63889;50.596;8.690;2022-10-16T06:08:42;1.63;;;1.20;;
14169;SDS011;63889;50.596;8.690;2022-10-16T06:11:09;9.40;;;1.40;;
14169;SDS011;63889;50.596;8.690;2022-10-16T06:13:36;1.42;;;1.00;;
14169;SDS011;63889;50.596;8.690;2022-10-16T06:16:03;3.33;;;1.65;;
14169;SDS011;63889;50.596;8.690;2022-10-16T06:18:29;3.65;;;1.48;;
14169;SDS011;63889;50.596;8.690;2022-10-16T06:20:55;1.80;;;1.30;;
14169;SDS011;63889;50.596;8.690;2022-10-16T06:23:22;4.30;;;1.58;;
14169;SDS011;63889;50.596;8.690;2022-10-16T06:25:47;4.53;;;1.27;;
14169;SDS011;63889;50.596;8.690;2022-10-16T06:28:13;3.95;;;1.67;;
14169;SDS011;63889;50.596;8.690;2022-10-16T06:30:39;4.20;;;2.08;;
14169;SDS011;63889;50.596;8.690;2022-10-16T06:33:05;5.05;;;1.35;;
14169;SDS011;63889;50.596;8.690;2022-10-16T06:35:31;1.92;;;1.48;;
14169;SDS011;63889;50.596;8.690;2022-10-16T06:37:57;2.95;;;1.73;;
14169;SDS011;63889;50.596;8.690;2022-10-16T06:40:22;3.10;;;1.90;;
14169;SDS011;63889;50.596;8.690;2022-10-16T06:42:48;4.32;;;1.95;;
14169;SDS011;63889;50.596;8.690;2022-10-16T06:45:13;1.67;;;1.38;;
14169;SDS011;63889;50.596;8.690;2022-10-16T06:47:39;4.07;;;1.80;;
14169;SDS011;63889;50.596;8.690;2022-10-16T06:50:05;2.08;;;1.55;;
14169;SDS011;63889;50.596;8.690;2022-10-16T06:52:32;7.35;;;1.92;;
14169;SDS011;63889;50.596;8.690;2022-10-16T06:54:58;4.45;;;1.73;;
14169;SDS011;63889;50.596;8.690;2022-10-16T06:57:24;4.18;;;2.20;;
14169;SDS011;63889;50.596;8.690;2022-10-16T06:59:49;9.63;;;2.22;;
14169;SDS011;63889;50.596;8.690;2022-10-16T07:02:15;5.13;;;3.38;;
14169;SDS011;63889;50.596;8.690;2022-10-16T07:04:40;6.15;;;1.95;;
14169;SDS011;63889;50.596;8.690;2022-10-16T07:07:06;5.53;;;2.00;;
14169;SDS011;63889;50.596;8.690;2022-10-16T07:09:44;5.47;;;2.38;;
14169;SDS011;63889;50.596;8.690;2022-10-16T07:12:10;4.15;;;2.60;;
14169;SDS011;63889;50.596;8.690;2022-10-16T07:14:35;6.78;;;2.70;;
14169;SDS011;63889;50.596;8.690;2022-10-16T07:17:01;5.13;;;2.55;;
14169;SDS011;63889;50.596;8.690;2022-10-16T07:19:27;4.32;;;2.47;;
14169;SDS011;63889;50.596;8.690;2022-10-16T07:21:53;7.00;;;2.97;;
14169;SDS011;63889;50.596;8.690;2022-10-16T07:24:18;2.63;;;2.15;;
14169;SDS011;63889;50.596;8.690;2022-10-16T07:26:44;4.90;;;2.63;;
14169;SDS011;63889;50.596;8.690;2022-10-16T07:29:15;3.65;;;2.70;;
14169;SDS011;63889;50.596;8.690;2022-10-16T07:31:42;5.85;;;2.53;;
14169;SDS011;63889;50.596;8.690;2022-10-16T07:34:08;3.70;;;3.00;;
14169;SDS011;63889;50.596;8.690;2022-10-16T07:36:35;8.98;;;3.05;;
14169;SDS011;63889;50.596;8.690;2022-10-16T07:39:00;4.50;;;3.03;;
14169;SDS011;63889;50.596;8.690;2022-10-16T07:41:26;4.60;;;2.90;;
14169;SDS011;63889;50.596;8.690;2022-10-16T07:43:53;4.15;;;2.80;;
14169;SDS011;63889;50.596;8.690;2022-10-16T07:46:20;6.22;;;3.20;;
14169;SDS011;63889;50.596;8.690;2022-10-16T07:48:47;7.90;;;2.88;;
14169;SDS011;63889;50.596;8.690;2022-10-16T07:51:17;10.98;;;4.43;;
14169;SDS011;63889;50.596;8.690;2022-10-16T07:53:44;14.52;;;5.05;;
14169;SDS011;63889;50.596;8.690;2022-10-16T07:56:10;35.53;;;13.88;;
14169;SDS011;63889;50.596;8.690;2022-10-16T07:58:36;42.08;;;14.10;;
14169;SDS011;63889;50.596;8.690;2022-10-16T08:01:03;10.73;;;5.38;;
14169;SDS011;63889;50.596;8.690;2022-10-16T08:03:30;9.77;;;4.63;;
14169;SDS011;63889;50.596;8.690;2022-10-16T08:05:56;12.82;;;5.28;;
14169;SDS011;63889;50.596;8.690;2022-10-16T08:08:22;11.50;;;5.18;;
14169;SDS011;63889;50.596;8.690;2022-10-16T08:10:48;15.20;;;6.50;;
14169;SDS011;63889;50.596;8.690;2022-10-16T08:13:13;12.70;;;6.43;;
14169;SDS011;63889;50.596;8.690;2022-10-16T08:15:40;9.18;;;5.70;;
14169;SDS011;63889;50.596;8.690;2022-10-16T08:18:06;8.07;;;4.75;;
14169;SDS011;63889;50.596;8.690;2022-10-16T08:20:32;8.38;;;5.25;;
14169;SDS011;63889;50.596;8.690;2022-10-16T08:22:58;11.20;;;6.90;;
14169;SDS011;63889;50.596;8.690;2022-10-16T08:25:24;8.55;;;5.50;;
14169;SDS011;63889;50.596;8.690;2022-10-16T08:27:50;8.73;;;5.32;;
14169;SDS011;63889;50.596;8.690;2022-10-16T08:30:17;9.35;;;5.30;;
14169;SDS011;63889;50.596;8.690;2022-10-16T08:32:44;7.55;;;5.00;;
14169;SDS011;63889;50.596;8.690;2022-10-16T08:35:10;11.27;;;5.07;;
14169;SDS011;63889;50.596;8.690;2022-10-16T08:37:37;6.75;;;4.65;;
14169;SDS011;63889;50.596;8.690;2022-10-16T08:40:04;8.68;;;4.32;;
14169;SDS011;63889;50.596;8.690;2022-10-16T08:42:35;10.98;;;4.25;;
14169;SDS011;63889;50.596;8.690;2022-10-16T08:50:29;6.78;;;3.60;;
14169;SDS011;63889;50.596;8.690;2022-10-16T08:52:57;4.75;;;2.97;;
14169;SDS011;63889;50.596;8.690;2022-10-16T08:55:28;4.45;;;2.97;;
14169;SDS011;63889;50.596;8.690;2022-10-16T08:58:00;4.65;;;2.95;;
14169;SDS011;63889;50.596;8.690;2022-10-16T09:00:26;4.35;;;3.20;;
14169;SDS011;63889;50.596;8.690;2022-10-16T09:02:53;5.03;;;3.33;;
14169;SDS011;63889;50.596;8.690;2022-10-16T09:05:49;5.10;;;3.50;;
14169;SDS011;63889;50.596;8.690;2022-10-16T09:08:32;5.70;;;2.95;;
14169;SDS011;63889;50.596;8.690;2022-10-16T09:14:07;4.65;;;3.85;;
14169;SDS011;63889;50.596;8.690;2022-10-16T09:17:24;4.50;;;3.70;;
14169;SDS011;63889;50.596;8.690;2022-10-16T09:23:08;7.03;;;2.72;;
14169;SDS011;63889;50.596;8.690;2022-10-16T09:25:41;5.72;;;2.78;;
14169;SDS011;63889;50.596;8.690;2022-10-16T09:28:13;3.75;;;2.30;;
14169;SDS011;63889;50.596;8.690;2022-10-16T09:30:38;2.97;;;2.35;;
14169;SDS011;63889;50.596;8.690;2022-10-16T09:33:04;3.58;;;1.60;;
14169;SDS011;63889;50.596;8.690;2022-10-16T09:35:32;2.80;;;1.83;;
14169;SDS011;63889;50.596;8.690;2022-10-16T09:38:02;5.63;;;2.10;;
14169;SDS011;63889;50.596;8.690;2022-10-16T09:40:31;2.95;;;1.77;;
14169;SDS011;63889;50.596;8.690;2022-10-16T09:45:55;3.90;;;1.38;;
14169;SDS011;63889;50.596;8.690;2022-10-16T09:48:22;2.88;;;1.15;;
14169;SDS011;63889;50.596;8.690;2022-10-16T09:50:57;2.20;;;1.17;;
14169;SDS011;63889;50.596;8.690;2022-10-16T09:53:25;1.27;;;0.98;;
14169;SDS011;63889;50.596;8.690;2022-10-16T09:56:03;7.07;;;1.30;;
14169;SDS011;63889;50.596;8.690;2022-10-16T09:58:30;7.55;;;1.23;;
14169;SDS011;63889;50.596;8.690;2022-10-16T10:00:57;4.68;;;1.73;;
14169;SDS011;63889;50.596;8.690;2022-10-16T10:03:33;1.20;;;1.10;;
14169;SDS011;63889;50.596;8.690;2022-10-16T10:06:06;3.72;;;0.90;;
14169;SDS011;63889;50.596;8.690;2022-10-16T10:08:53;3.88;;;1.13;;
14169;SDS011;63889;50.596;8.690;2022-10-16T10:11:35;3.88;;;0.90;;
14169;SDS011;63889;50.596;8.690;2022-10-16T10:14:17;1.63;;;0.90;;
14169;SDS011;63889;50.596;8.690;2022-10-16T10:16:50;3.33;;;1.30;;
14169;SDS011;63889;50.596;8.690;2022-10-16T10:19:22;2.95;;;0.88;;
14169;SDS011;63889;50.596;8.690;2022-10-16T10:21:49;2.67;;;0.90;;
14169;SDS011;63889;50.596;8.690;2022-10-16T10:24:16;0.70;;;0.70;;
14169;SDS011;63889;50.596;8.690;2022-10-16T10:26:48;2.88;;;0.93;;
14169;SDS011;63889;50.596;8.690;2022-10-16T10:29:41;1.83;;;1.20;;
14169;SDS011;63889;50.596;8.690;2022-10-16T10:42:50;3.75;;;0.75;;
14169;SDS011;63889;50.596;8.690;2022-10-16T10:50:57;3.28;;;0.80;;
14169;SDS011;63889;50.596;8.690;2022-10-16T10:56:24;1.30;;;0.60;;
14169;SDS011;63889;50.596;8.690;2022-10-16T11:04:33;1.80;;;0.77;;
14169;SDS011;63889;50.596;8.690;2022-10-16T11:07:17;1.30;;;0.82;;
14169;SDS011;63889;50.596;8.690;2022-10-16T11:09:51;1.00;;;0.93;;
14169;SDS011;63889;50.596;8.690;2022-10-16T11:12:34;2.97;;;0.60;;
14169;SDS011;63889;50.596;8.690;2022-10-16T11:20:23;2.47;;;0.63;;
14169;SDS011;63889;50.596;8.690;2022-10-16T11:25:33;1.70;;;0.47;;
14169;SDS011;63889;50.596;8.690;2022-10-16T11:28:16;1.60;;;1.10;;
14169;SDS011;63889;50.596;8.690;2022-10-16T11:35:53;3.42;;;0.80;;
14169;SDS011;63889;50.596;8.690;2022-10-16T11:38:37;1.85;;;0.55;;
14169;SDS011;63889;50.596;8.690;2022-10-16T11:43:46;6.20;;;0.82;;
14169;SDS011;63889;50.596;8.690;2022-10-16T11:46:28;1.90;;;0.50;;
14169;SDS011;63889;50.596;8.690;2022-10-16T11:49:00;0.73;;;0.50;;
14169;SDS011;63889;50.596;8.690;2022-10-16T11:51:43;2.30;;;0.82;;
14169;SDS011;63889;50.596;8.690;2022-10-16T11:54:20;0.45;;;0.40;;
14169;SDS011;63889;50.596;8.690;2022-10-16T11:56:48;0.52;;;0.30;;
14169;SDS011;63889;50.596;8.690;2022-10-16T11:59:20;1.05;;;0.40;;
14169;SDS011;63889;50.596;8.690;2022-10-16T12:07:47;0.30;;;0.30;;
14169;SDS011;63889;50.596;8.690;2022-10-16T12:10:36;0.32;;;0.32;;
14169;SDS011;63889;50.596;8.690;2022-10-16T12:13:48;2.08;;;0.90;;
14169;SDS011;63889;50.596;8.690;2022-10-16T12:16:03;1.33;;;0.40;;
14169;SDS011;63889;50.596;8.690;2022-10-16T12:18:49;0.55;;;0.35;;
14169;SDS011;63889;50.596;8.690;2022-10-16T12:21:34;0.60;;;0.52;;
14169;SDS011;63889;50.596;8.690;2022-10-16T12:24:00;3.50;;;0.90;;
14169;SDS011;63889;50.596;8.690;2022-10-16T12:26:33;2.65;;;0.63;;
14169;SDS011;63889;50.596;8.690;2022-10-16T12:31:43;1.17;;;0.90;;
14169;SDS011;63889;50.596;8.690;2022-10-16T12:34:26;2.08;;;0.82;;
14169;SDS011;63889;50.596;8.690;2022-10-16T12:37:09;1.27;;;0.65;;
14169;SDS011;63889;50.596;8.690;2022-10-16T12:39:44;1.10;;;0.60;;
14169;SDS011;63889;50.596;8.690;2022-10-16T12:44:54;3.08;;;0.70;;
14169;SDS011;63889;50.596;8.690;2022-10-16T12:49:58;0.55;;;0.50;;
14169;SDS011;63889;50.596;8.690;2022-10-16T12:54:59;0.88;;;0.38;;
14169;SDS011;63889;50.596;8.690;2022-10-16T13:17:09;0.85;;;0.43;;
14169;SDS011;63889;50.596;8.690;2022-10-16T13:22:22;2.53;;;0.22;;
14169;SDS011;63889;50.596;8.690;2022-10-16T13:25:18;1.27;;;0.50;;
14169;SDS011;63889;50.596;8.690;2022-10-16T13:27:52;0.30;;;0.30;;
14169;SDS011;63889;50.596;8.690;2022-10-16T13:33:00;1.08;;;0.40;;
14169;SDS011;63889;50.596;8.690;2022-10-16T13:35:30;1.90;;;0.50;;
14169;SDS011;63889;50.596;8.690;2022-10-16T13:38:30;3.15;;;1.95;;
14169;SDS011;63889;50.596;8.690;2022-10-16T13:41:00;2.15;;;0.30;;
14169;SDS011;63889;50.596;8.690;2022-10-16T13:46:01;3.58;;;0.65;;
14169;SDS011;63889;50.596;8.690;2022-10-16T13:48:29;0.90;;;0.30;;
14169;SDS011;63889;50.596;8.690;2022-10-16T13:50:59;0.55;;;0.45;;
14169;SDS011;63889;50.596;8.690;2022-10-16T13:53:30;0.10;;;0.10;;
14169;SDS011;63889;50.596;8.690;2022-10-16T13:55:58;0.25;;;0.20;;
14169;SDS011;63889;50.596;8.690;2022-10-16T13:58:25;3.17;;;0.40;;
14169;SDS011;63889;50.596;8.690;2022-10-16T14:01:04;1.75;;;0.65;;
14169;SDS011;63889;50.596;8.690;2022-10-16T14:03:39;0.50;;;0.30;;
14169;SDS011;63889;50.596;8.690;2022-10-16T14:06:10;2.13;;;0.38;;
14169;SDS011;63889;50.596;8.690;2022-10-16T14:08:41;0.70;;;0.70;;
14169;SDS011;63889;50.596;8.690;2022-10-16T14:11:08;1.50;;;0.82;;
14169;SDS011;63889;50.596;8.690;2022-10-16T14:13:38;1.73;;;0.85;;
14169;SDS011;63889;50.596;8.690;2022-10-16T14:16:09;1.13;;;0.90;;
14169;SDS011;63889;50.596;8.690;2022-10-16T14:18:40;1.42;;;1.00;;
14169;SDS011;63889;50.596;8.690;2022-10-16T14:21:06;1.27;;;0.60;;
14169;SDS011;63889;50.596;8.690;2022-10-16T14:23:37;0.82;;;0.60;;
14169;SDS011;63889;50.596;8.690;2022-10-16T14:28:32;1.08;;;0.80;;
14169;SDS011;63889;50.596;8.690;2022-10-16T14:30:58;1.25;;;0.82;;
14169;SDS011;63889;50.596;8.690;2022-10-16T14:38:35;3.13;;;0.90;;
14169;SDS011;63889;50.596;8.690;2022-10-16T14:41:02;1.00;;;0.90;;
14169;SDS011;63889;50.596;8.690;2022-10-16T14:43:31;3.28;;;0.95;;
14169;SDS011;63889;50.596;8.690;2022-10-16T14:46:02;1.30;;;0.95;;
14169;SDS011;63889;50.596;8.690;2022-10-16T14:48:30;8.95;;;1.63;;
14169;SDS011;63889;50.596;8.690;2022-10-16T14:50:57;0.77;;;0.75;;
14169;SDS011;63889;50.596;8.690;2022-10-16T14:53:22;3.60;;;0.70;;
14169;SDS011;63889;50.596;8.690;2022-10-16T14:55:48;3.67;;;0.88;;
14169;SDS011;63889;50.596;8.690;2022-10-16T14:58:20;1.30;;;0.95;;
14169;SDS011;63889;50.596;8.690;2022-10-16T15:00:47;6.25;;;1.40;;
14169;SDS011;63889;50.596;8.690;2022-10-16T15:03:14;0.95;;;0.80;;
14169;SDS011;63889;50.596;8.690;2022-10-16T15:05:40;0.77;;;0.77;;
14169;SDS011;63889;50.596;8.690;2022-10-16T15:08:05;6.32;;;1.10;;
14169;SDS011;63889;50.596;8.690;2022-10-16T15:10:31;1.20;;;1.10;;
14169;SDS011;63889;50.596;8.690;2022-10-16T15:13:02;1.27;;;1.08;;
14169;SDS011;63889;50.596;8.690;2022-10-16T15:15:36;3.85;;;1.00;;
14169;SDS011;63889;50.596;8.690;2022-10-16T15:18:09;1.30;;;0.82;;
14169;SDS011;63889;50.596;8.690;2022-10-16T15:20:36;1.45;;;0.95;;
14169;SDS011;63889;50.596;8.690;2022-10-16T15:23:03;5.75;;;1.15;;
14169;SDS011;63889;50.596;8.690;2022-10-16T15:25:43;1.20;;;1.10;;
14169;SDS011;63889;50.596;8.690;2022-10-16T15:28:11;3.70;;;1.05;;
14169;SDS011;63889;50.596;8.690;2022-10-16T15:30:37;3.97;;;1.42;;
14169;SDS011;63889;50.596;8.690;2022-10-16T15:33:03;2.55;;;1.00;;
14169;SDS011;63889;50.596;8.690;2022-10-16T15:35:30;1.27;;;1.10;;
14169;SDS011;63889;50.596;8.690;2022-10-16T15:37:55;1.88;;;1.30;;
14169;SDS011;63889;50.596;8.690;2022-10-16T15:40:21;1.10;;;0.93;;
14169;SDS011;63889;50.596;8.690;2022-10-16T15:42:48;5.38;;;1.20;;
14169;SDS011;63889;50.596;8.690;2022-10-16T15:45:14;2.60;;;1.33;;
14169;SDS011;63889;50.596;8.690;2022-10-16T15:47:40;1.45;;;1.00;;
14169;SDS011;63889;50.596;8.690;2022-10-16T15:50:08;1.70;;;1.17;;
14169;SDS011;63889;50.596;8.690;2022-10-16T15:52:35;3.05;;;1.17;;
14169;SDS011;63889;50.596;8.690;2022-10-16T15:55:01;2.90;;;1.25;;
14169;SDS011;63889;50.596;8.690;2022-10-16T15:57:30;4.28;;;1.20;;
14169;SDS011;63889;50.596;8.690;2022-10-16T15:59:55;2.65;;;1.20;;
14169;SDS011;63889;50.596;8.690;2022-10-16T16:02:21;6.00;;;1.83;;
14169;SDS011;63889;50.596;8.690;2022-10-16T16:04:46;1.98;;;1.17;;
14169;SDS011;63889;50.596;8.690;2022-10-16T16:07:12;3.80;;;2.10;;
14169;SDS011;63889;50.596;8.690;2022-10-16T16:09:37;3.00;;;1.50;;
14169;SDS011;63889;50.596;8.690;2022-10-16T16:12:03;5.30;;;1.83;;
14169;SDS011;63889;50.596;8.690;2022-10-16T16:14:28;4.30;;;2.58;;
14169;SDS011;63889;50.596;8.690;2022-10-16T16:16:54;3.53;;;1.70;;
14169;SDS011;63889;50.596;8.690;2022-10-16T16:19:20;2.88;;;1.50;;
14169;SDS011;63889;50.596;8.690;2022-10-16T16:21:46;1.92;;;1.70;;
14169;SDS011;63889;50.596;8.690;2022-10-16T16:24:12;3.75;;;1.48;;
14169;SDS011;63889;50.596;8.690;2022-10-16T16:26:38;3.50;;;1.50;;
14169;SDS011;63889;50.596;8.690;2022-10-16T16:29:04;3.90;;;1.50;;
14169;SDS011;63889;50.596;8.690;2022-10-16T16:31:31;2.22;;;1.40;;
14169;SDS011;63889;50.596;8.690;2022-10-16T16:33:58;2.42;;;1.65;;
14169;SDS011;63889;50.596;8.690;2022-10-16T16:36:24;3.50;;;1.63;;
14169;SDS011;63889;50.596;8.690;2022-10-16T16:38:50;3.15;;;1.90;;
14169;SDS011;63889;50.596;8.690;2022-10-16T16:41:19;3.25;;;1.92;;
14169;SDS011;63889;50.596;8.690;2022-10-16T16:43:46;2.15;;;1.80;;
14169;SDS011;63889;50.596;8.690;2022-10-16T16:46:12;2.10;;;1.85;;
14169;SDS011;63889;50.596;8.690;2022-10-16T16:48:39;3.85;;;2.38;;
14169;SDS011;63889;50.596;8.690;2022-10-16T16:51:05;5.40;;;2.13;;
14169;SDS011;63889;50.596;8.690;2022-10-16T16:53:35;3.67;;;1.75;;
14169;SDS011;63889;50.596;8.690;2022-10-16T16:56:04;2.28;;;2.03;;
14169;SDS011;63889;50.596;8.690;2022-10-16T16:58:31;3.17;;;2.30;;
14169;SDS011;63889;50.596;8.690;2022-10-16T17:00:57;3.55;;;2.05;;
14169;SDS011;63889;50.596;8.690;2022-10-16T17:03:33;2.97;;;2.15;;
14169;SDS011;63889;50.596;8.690;2022-10-16T17:06:08;3.00;;;1.92;;